createdAt,value
2019-01-23T00:00:30.811Z,96.40
2019-01-23T00:03:01.506Z,96.50
2019-01-23T00:05:32.278Z,96.40
2019-01-23T00:08:03.076Z,96.40
2019-01-23T00:10:34.186Z,96.40
2019-01-23T00:13:04.968Z,96.20
2019-01-23T00:15:35.706Z,96.30
2019-01-23T00:18:06.510Z,96.30
2019-01-23T00:20:37.195Z,96.40
2019-01-23T00:23:07.926Z,96.40
2019-01-23T00:25:39.658Z,96.20
2019-01-23T00:28:10.364Z,96.10
2019-01-23T00:30:41.115Z,96.20
2019-01-23T00:33:11.794Z,96.00
2019-01-23T00:35:42.565Z,96.00
2019-01-23T00:38:13.246Z,96.00
2019-01-23T00:40:43.981Z,95.90
2019-01-23T00:43:14.719Z,95.90
2019-01-23T00:45:47.012Z,96.00
2019-01-23T00:48:17.808Z,96.10
2019-01-23T00:50:48.582Z,96.20
2019-01-23T00:53:19.242Z,96.20
2019-01-23T00:55:49.973Z,95.90
2019-01-23T00:58:20.708Z,95.70
2019-01-23T01:00:51.550Z,95.80
2019-01-23T01:03:22.222Z,95.70
2019-01-23T01:05:52.958Z,95.90
2019-01-23T01:08:23.896Z,95.70
2019-01-23T01:10:54.758Z,95.80
2019-01-23T01:13:25.486Z,95.80
2019-01-23T01:15:56.355Z,96.30
2019-01-23T01:18:27.058Z,96.00
2019-01-23T01:20:57.825Z,96.00
2019-01-23T01:23:28.628Z,96.00
2019-01-23T01:25:59.451Z,96.00
2019-01-23T01:28:30.203Z,96.00
2019-01-23T01:31:01.009Z,95.90
2019-01-23T01:33:34.007Z,96.00
2019-01-23T01:36:04.397Z,96.00
2019-01-23T01:38:35.141Z,96.10
2019-01-23T01:41:06.019Z,96.00
2019-01-23T01:43:36.746Z,95.90
2019-01-23T01:46:07.504Z,95.80
2019-01-23T01:48:38.451Z,95.70
2019-01-23T01:51:09.200Z,95.60
2019-01-23T02:09:27.404Z,95.70
2019-01-23T02:11:59.906Z,95.80
2019-01-23T02:15:28.871Z,96.30
2019-01-23T02:19:04.259Z,96.00
2019-01-23T02:21:35.194Z,96.00
2019-01-23T02:24:35.878Z,95.90
2019-01-23T02:27:16.125Z,96.00
2019-01-23T02:30:05.209Z,95.90
2019-01-23T02:32:51.206Z,95.90
2019-01-23T02:35:23.545Z,96.00
2019-01-23T02:37:54.968Z,96.00
2019-01-23T02:41:15.064Z,95.90
2019-01-23T02:43:52.581Z,95.90
2019-01-23T02:46:38.847Z,95.80
2019-01-23T02:49:09.739Z,95.90
2019-01-23T02:51:40.772Z,95.90
2019-01-23T02:55:15.456Z,95.80
2019-01-23T02:57:57.184Z,95.80
2019-01-23T03:00:31.792Z,95.70
2019-01-23T03:03:08.672Z,95.70
2019-01-23T03:05:44.466Z,95.50
2019-01-23T03:08:52.375Z,95.40
2019-01-23T03:11:23.300Z,95.40
2019-01-23T03:14:25.377Z,95.40
2019-01-23T03:18:04.463Z,95.30
2019-01-23T03:20:44.266Z,95.30
2019-01-23T03:26:27.877Z,95.40
2019-01-23T03:29:43.572Z,95.40
2019-01-23T03:37:07.715Z,95.40
2019-01-23T03:40:36.168Z,95.40
2019-01-23T03:43:16.537Z,95.40
2019-01-23T03:46:35.375Z,95.50
2019-01-23T03:49:04.569Z,95.50
2019-01-23T03:51:35.434Z,95.60
2019-01-23T03:54:06.420Z,95.50
2019-01-23T03:56:37.191Z,95.80
2019-01-23T03:59:08.987Z,95.50
2019-01-23T04:01:40.873Z,95.20
2019-01-23T04:04:22.566Z,95.30
2019-01-23T04:06:55.311Z,95.30
2019-01-23T04:13:48.272Z,95.40
2019-01-23T04:20:17.246Z,95.30
2019-01-23T04:22:53.113Z,95.20
2019-01-23T04:32:57.272Z,95.20
2019-01-23T04:35:53.303Z,95.40
2019-01-23T04:38:21.046Z,95.50
2019-01-23T04:40:52.043Z,95.30
2019-01-23T04:43:23.227Z,95.40
2019-01-23T04:45:54.095Z,95.40
2019-01-23T04:48:25.027Z,95.40
2019-01-23T04:51:26.945Z,95.40
2019-01-23T04:53:57.994Z,95.40
2019-01-23T04:56:28.864Z,95.40
2019-01-23T04:58:59.655Z,95.40
2019-01-23T05:01:30.519Z,95.40
2019-01-23T05:04:01.324Z,95.40
2019-01-23T05:06:32.224Z,95.40
2019-01-23T05:09:03.835Z,95.40
2019-01-23T05:11:34.898Z,95.40
2019-01-23T05:14:06.818Z,95.40
2019-01-23T05:16:42.033Z,95.40
2019-01-23T05:23:19.741Z,95.30
2019-01-23T05:26:18.801Z,95.20
2019-01-23T05:28:53.027Z,95.10
2019-01-23T05:31:34.323Z,95.20
2019-01-23T05:54:08.232Z,95.30
2019-01-23T05:56:39.049Z,95.30
2019-01-23T05:59:09.826Z,95.40
2019-01-23T06:01:44.145Z,95.40
2019-01-23T06:04:15.091Z,95.50
2019-01-23T06:06:50.674Z,95.60
2019-01-23T06:09:23.458Z,95.70
2019-01-23T06:11:56.866Z,95.80
2019-01-23T06:14:27.779Z,95.80
2019-01-23T06:17:27.915Z,95.80
2019-01-23T06:19:58.863Z,95.90
2019-01-23T06:22:32.459Z,95.90
2019-01-23T06:25:07.347Z,95.90
2019-01-23T06:27:39.817Z,96.00
2019-01-23T06:30:14.820Z,95.90
2019-01-23T06:32:45.748Z,95.90
2019-01-23T06:51:42.546Z,95.90
2019-01-23T06:54:24.542Z,95.90
2019-01-23T06:56:55.820Z,95.80
2019-01-23T06:59:26.898Z,95.80
2019-01-23T07:02:23.841Z,95.80
2019-01-23T07:05:06.957Z,95.90
2019-01-23T07:07:42.261Z,96.00
2019-01-23T07:10:20.271Z,96.00
2019-01-23T07:12:51.107Z,96.00
2019-01-23T07:15:23.553Z,96.00
2019-01-23T07:17:54.624Z,96.00
2019-01-23T07:20:27.283Z,96.00
2019-01-23T07:22:58.343Z,96.00
2019-01-23T07:30:11.310Z,95.90
2019-01-23T07:32:48.539Z,96.00
2019-01-23T07:35:20.187Z,95.80
2019-01-23T07:38:12.217Z,95.80
2019-01-23T07:40:43.109Z,95.80
2019-01-23T07:43:14.035Z,95.70
2019-01-23T07:45:44.985Z,95.80
2019-01-23T07:48:17.087Z,95.90
2019-01-23T07:54:49.147Z,96.00
2019-01-23T07:57:20.632Z,96.00
2019-01-23T07:59:52.670Z,95.90
2019-01-23T08:02:27.890Z,95.90
2019-01-23T08:04:58.828Z,95.90
2019-01-23T08:07:29.790Z,95.80
2019-01-23T08:10:00.734Z,95.60
2019-01-23T08:12:31.789Z,95.60
2019-01-23T08:15:02.862Z,95.60
2019-01-23T08:21:21.158Z,95.70
2019-01-23T08:23:51.954Z,95.80
2019-01-23T08:26:22.797Z,95.60
2019-01-23T08:28:53.593Z,95.60
2019-01-23T08:31:24.420Z,95.60
2019-01-23T08:33:55.298Z,95.60
2019-01-23T08:36:26.115Z,95.60
2019-01-23T08:38:59.415Z,95.60
2019-01-23T08:41:30.177Z,95.50
2019-01-23T08:45:15.679Z,95.20
2019-01-23T08:52:17.413Z,94.90
2019-01-23T08:56:03.705Z,94.70
2019-01-23T09:06:24.854Z,94.80
2019-01-23T09:09:54.035Z,94.70
2019-01-23T09:12:25.406Z,94.70
2019-01-23T09:14:56.228Z,94.60
2019-01-23T09:17:26.951Z,94.40
2019-01-23T09:19:57.667Z,94.40
2019-01-23T09:22:28.465Z,94.50
2019-01-23T09:29:12.055Z,94.80
2019-01-23T09:32:04.456Z,94.40
2019-01-23T09:35:04.114Z,94.50
2019-01-23T09:38:59.560Z,94.30
2019-01-23T09:55:51.570Z,93.60
2019-01-23T09:58:23.047Z,93.50
2019-01-23T10:01:33.029Z,92.50
2019-01-23T10:04:48.438Z,92.00
2019-01-23T10:07:20.166Z,92.20
2019-01-23T10:10:45.879Z,92.00
2019-01-23T10:13:16.667Z,91.90
2019-01-23T10:16:10.846Z,92.00
2019-01-23T10:18:41.662Z,91.60
2019-01-23T10:21:57.627Z,91.70
2019-01-23T10:26:13.297Z,92.00
2019-01-23T10:30:27.620Z,92.00
2019-01-23T10:33:00.910Z,91.90
2019-01-23T10:35:33.240Z,92.20
2019-01-23T10:38:04.109Z,91.80
2019-01-23T10:40:35.152Z,91.70
2019-01-23T10:43:05.889Z,91.50
2019-01-23T10:45:36.934Z,91.30
2019-01-23T10:48:07.725Z,91.20
2019-01-23T10:50:38.677Z,91.40
2019-01-23T10:53:09.486Z,91.70
2019-01-23T10:55:44.343Z,91.90
2019-01-23T10:58:15.214Z,91.20
2019-01-23T11:00:46.029Z,90.80
2019-01-23T11:03:23.463Z,90.50
2019-01-23T11:05:54.273Z,90.90
2019-01-23T11:12:16.933Z,90.80
2019-01-23T11:14:48.134Z,90.60
2019-01-23T11:17:50.432Z,90.40
2019-01-23T11:22:01.850Z,90.20
2019-01-23T11:25:13.253Z,90.40
2019-01-23T11:28:30.007Z,90.30
2019-01-23T11:37:57.577Z,90.60
2019-01-23T11:41:31.771Z,90.50
2019-01-23T11:44:07.797Z,90.50
2019-01-23T11:52:28.209Z,90.80
2019-01-23T11:54:35.952Z,91.20
2019-01-23T11:57:20.475Z,91.00
2019-01-23T12:00:00.103Z,90.70
2019-01-23T12:07:07.037Z,90.90
2019-01-23T12:09:48.226Z,91.20
2019-01-23T12:12:18.971Z,91.20
2019-01-23T12:14:54.639Z,91.40
2019-01-23T12:17:28.291Z,91.10
2019-01-23T12:20:00.823Z,91.40
2019-01-23T12:23:05.679Z,91.20
2019-01-23T12:25:34.619Z,91.00
2019-01-23T12:28:05.513Z,91.50
2019-01-23T12:35:43.411Z,91.00
2019-01-23T12:38:18.704Z,91.50
2019-01-23T12:40:49.567Z,91.70
2019-01-23T12:43:20.379Z,91.70
2019-01-23T12:47:35.179Z,92.00
2019-01-23T13:08:43.033Z,91.80
2019-01-23T13:12:40.537Z,91.80
2019-01-23T13:15:23.236Z,91.80
2019-01-23T13:17:59.423Z,91.50
2019-01-23T13:20:30.274Z,91.70
2019-01-23T13:23:51.158Z,91.70
2019-01-23T13:26:44.613Z,91.80
2019-01-23T13:34:46.762Z,92.30
2019-01-23T13:37:22.548Z,92.10
2019-01-23T13:39:55.109Z,91.70
2019-01-23T13:42:30.324Z,91.80
2019-01-23T13:45:06.998Z,91.90
2019-01-23T13:47:37.973Z,92.20
2019-01-23T13:50:09.863Z,92.20
2019-01-23T13:53:04.563Z,91.60
2019-01-23T13:55:38.702Z,91.70
2019-01-23T13:58:14.118Z,92.10
2019-01-23T14:00:54.638Z,91.80
2019-01-23T14:03:51.363Z,91.80
2019-01-23T14:06:18.484Z,92.00
2019-01-23T14:08:57.892Z,91.80
2019-01-23T14:11:37.948Z,91.90
2019-01-23T14:14:10.636Z,91.80
2019-01-23T14:16:49.457Z,91.70
2019-01-23T14:19:30.447Z,91.80
2019-01-23T14:22:02.533Z,91.90
2019-01-23T14:24:41.725Z,92.00
2019-01-23T14:27:14.423Z,91.80
2019-01-23T14:35:58.839Z,91.90
2019-01-23T14:38:38.818Z,91.70
2019-01-23T14:41:09.779Z,91.80
2019-01-23T14:43:40.615Z,91.60
2019-01-23T14:46:11.382Z,91.50
2019-01-23T14:48:42.590Z,91.30
2019-01-23T14:51:13.554Z,91.10
2019-01-23T14:53:44.353Z,90.80
2019-01-23T14:56:15.362Z,91.00
2019-01-23T14:58:46.321Z,91.20
2019-01-23T15:01:17.081Z,90.90
2019-01-23T15:03:47.901Z,91.10
2019-01-23T15:06:18.617Z,91.20
2019-01-23T15:08:49.348Z,91.20
2019-01-23T15:11:20.084Z,91.00
2019-01-23T15:13:50.877Z,91.00
2019-01-23T15:16:21.709Z,91.10
2019-01-23T15:18:52.498Z,91.70
2019-01-23T15:21:23.319Z,91.30
2019-01-23T15:23:54.123Z,91.60
2019-01-23T15:26:24.802Z,91.60
2019-01-23T15:28:55.561Z,91.60
2019-01-23T15:31:26.312Z,91.90
2019-01-23T15:33:57.063Z,91.90
2019-01-23T15:36:27.862Z,91.60
2019-01-23T15:38:58.631Z,91.70
2019-01-23T15:41:29.429Z,92.00
2019-01-23T15:44:00.179Z,91.60
2019-01-23T15:46:31.014Z,91.80
2019-01-23T15:49:01.862Z,92.00
2019-01-23T15:51:32.645Z,92.20
2019-01-23T15:54:03.471Z,92.20
2019-01-23T15:56:34.251Z,92.40
2019-01-23T15:59:05.117Z,92.60
2019-01-23T16:01:35.940Z,92.70
2019-01-23T16:04:08.432Z,92.90
2019-01-23T16:06:39.684Z,92.70
2019-01-23T16:09:10.491Z,92.70
2019-01-23T16:11:45.923Z,92.80
2019-01-23T16:14:20.550Z,92.90
2019-01-23T16:16:54.065Z,93.00
2019-01-23T16:19:25.330Z,93.00
2019-01-23T16:21:58.613Z,93.20
2019-01-23T16:24:32.475Z,93.20
2019-01-23T16:27:03.701Z,93.50
2019-01-23T16:29:35.530Z,93.50
2019-01-23T16:32:08.118Z,93.60
2019-01-23T16:34:41.503Z,93.70
2019-01-23T16:37:15.366Z,93.70
2019-01-23T16:39:46.227Z,93.70
2019-01-23T16:42:18.226Z,93.70
2019-01-23T16:44:51.153Z,93.80
2019-01-23T16:47:22.143Z,93.80
2019-01-23T16:49:53.173Z,94.00
2019-01-23T16:52:24.074Z,93.90
2019-01-23T16:54:55.101Z,93.80
2019-01-23T16:57:26.073Z,94.00
2019-01-23T16:59:56.808Z,94.10
2019-01-23T17:02:27.562Z,94.20
2019-01-23T17:04:58.338Z,94.20
2019-01-23T17:07:29.165Z,94.20
2019-01-23T17:09:59.971Z,94.00
2019-01-23T17:12:30.621Z,94.00
2019-01-23T17:15:01.406Z,94.00
2019-01-23T17:17:32.081Z,94.10
2019-01-23T17:20:03.870Z,94.20
2019-01-23T17:22:36.278Z,94.00
2019-01-23T17:25:08.673Z,94.00
2019-01-23T17:27:39.553Z,94.10
2019-01-23T17:30:11.063Z,94.10
2019-01-23T17:32:45.664Z,94.20
2019-01-23T17:35:15.436Z,94.30
2019-01-23T17:37:46.190Z,94.30
2019-01-23T17:40:18.658Z,94.40
2019-01-23T17:42:49.497Z,94.30
2019-01-23T17:45:25.567Z,94.30
2019-01-23T17:47:57.998Z,94.20
2019-01-23T17:50:28.742Z,94.00
2019-01-23T17:52:59.492Z,94.20
2019-01-23T17:55:36.174Z,94.20
2019-01-23T17:58:09.015Z,94.20
2019-01-23T18:01:00.272Z,94.30
2019-01-23T18:03:32.699Z,94.30
2019-01-23T18:06:04.425Z,94.50
2019-01-23T18:08:35.215Z,94.40
2019-01-23T18:11:05.911Z,94.50
2019-01-23T18:13:36.782Z,94.50
2019-01-23T18:16:11.952Z,94.60
2019-01-23T18:18:42.726Z,94.50
2019-01-23T18:21:13.591Z,94.50
2019-01-23T18:23:44.464Z,94.40
2019-01-23T18:26:15.273Z,94.40
2019-01-23T18:28:48.530Z,94.50
2019-01-23T18:31:40.845Z,94.50
2019-01-23T18:34:51.170Z,94.50
2019-01-23T18:37:52.749Z,94.50
2019-01-23T18:41:17.631Z,94.60
2019-01-23T18:44:42.089Z,94.60
2019-01-23T18:47:49.569Z,94.60
2019-01-23T18:50:57.609Z,94.50
2019-01-23T18:53:30.043Z,94.30
2019-01-23T18:56:00.798Z,94.10
2019-01-23T18:58:31.810Z,94.20
2019-01-23T19:01:02.884Z,94.30
2019-01-23T19:03:33.941Z,94.10
2019-01-23T19:06:05.227Z,94.00
2019-01-23T19:08:37.538Z,94.00
2019-01-23T19:11:33.849Z,93.90
2019-01-23T19:14:24.580Z,93.40
2019-01-23T19:16:59.308Z,93.10
2019-01-23T19:19:30.026Z,92.90
2019-01-23T19:22:00.845Z,93.20
2019-01-23T19:24:31.846Z,93.20
2019-01-23T19:27:02.735Z,93.20
2019-01-23T19:29:33.449Z,93.20
2019-01-23T19:32:04.336Z,93.40
2019-01-23T19:34:35.203Z,93.40
2019-01-23T19:37:06.057Z,93.40
2019-01-23T19:39:36.780Z,93.60
2019-01-23T19:42:07.603Z,93.80
2019-01-23T19:44:38.514Z,93.80
2019-01-23T19:47:09.409Z,93.90
2019-01-23T19:49:40.314Z,93.60
2019-01-23T19:52:11.058Z,93.40
2019-01-23T19:54:41.845Z,93.50
2019-01-23T19:57:12.600Z,93.60
2019-01-23T19:59:44.937Z,93.50
2019-01-23T20:02:18.564Z,93.10
2019-01-23T20:04:49.400Z,93.20
2019-01-23T20:07:20.213Z,93.30
2019-01-23T20:09:51.010Z,93.10
2019-01-23T20:12:21.842Z,92.90
2019-01-23T20:14:52.664Z,93.00
2019-01-23T20:17:23.802Z,93.20
2019-01-23T20:19:54.796Z,93.20
2019-01-23T20:22:25.937Z,93.30
2019-01-23T20:24:57.302Z,93.00
2019-01-23T20:27:28.545Z,93.10
2019-01-23T20:29:59.622Z,93.00
2019-01-23T20:32:32.127Z,92.90
2019-01-23T20:35:03.162Z,92.60
2019-01-23T20:37:52.254Z,92.90
2019-01-23T20:40:19.510Z,92.90
2019-01-23T20:42:50.970Z,92.70
2019-01-23T20:45:21.808Z,92.80
2019-01-23T20:47:52.597Z,92.90
2019-01-23T20:50:28.609Z,93.20
2019-01-23T20:53:00.381Z,93.40
2019-01-23T20:55:31.138Z,93.50
2019-01-23T20:58:02.590Z,93.50
2019-01-23T21:00:34.022Z,93.30
2019-01-23T21:03:05.396Z,93.20
2019-01-23T21:05:37.480Z,93.10
2019-01-23T21:08:08.247Z,93.00
2019-01-23T21:10:39.078Z,93.10
2019-01-23T21:13:09.816Z,93.30
2019-01-23T21:15:40.508Z,93.40
2019-01-23T21:18:11.575Z,93.70
2019-01-23T21:20:46.182Z,93.60
2019-01-23T21:23:17.290Z,93.70
2019-01-23T21:25:48.097Z,93.30
2019-01-23T21:28:19.279Z,93.30
2019-01-23T21:30:51.635Z,93.40
2019-01-23T21:33:23.005Z,93.40
2019-01-23T21:35:54.861Z,93.50
2019-01-23T21:46:35.874Z,93.50
2019-01-23T21:49:06.695Z,93.60
2019-01-23T21:51:39.063Z,93.60
2019-01-23T21:54:10.050Z,93.60
2019-01-23T21:56:40.859Z,93.60
2019-01-23T21:59:11.701Z,93.70
2019-01-23T22:01:42.957Z,93.60
2019-01-23T22:04:14.057Z,93.50
2019-01-23T22:06:44.948Z,93.50
2019-01-23T22:09:15.900Z,93.60
2019-01-23T22:11:46.634Z,93.60
2019-01-23T22:14:18.060Z,93.60
2019-01-23T22:17:11.264Z,93.50
2019-01-23T22:20:10.722Z,93.40
2019-01-23T22:22:41.541Z,93.20
2019-01-23T22:25:13.756Z,93.20
2019-01-23T22:27:44.531Z,93.00
2019-01-23T22:30:18.373Z,93.10
2019-01-23T22:32:49.477Z,93.30
2019-01-23T22:35:20.237Z,93.20
2019-01-23T22:37:50.947Z,93.50
2019-01-23T22:40:21.767Z,93.30
2019-01-23T22:42:52.597Z,93.30
2019-01-23T22:45:23.354Z,93.40
2019-01-23T22:47:54.092Z,93.50
2019-01-23T22:50:28.889Z,93.60
2019-01-23T22:52:59.646Z,93.70
2019-01-23T22:55:30.653Z,93.30
2019-01-23T22:58:01.435Z,93.10
2019-01-23T23:01:05.857Z,92.90
2019-01-23T23:03:36.717Z,93.00
2019-01-23T23:06:07.499Z,93.20
2019-01-23T23:08:39.871Z,93.40
2019-01-23T23:11:10.629Z,93.40
2019-01-23T23:13:41.372Z,93.50
2019-01-23T23:16:12.356Z,93.30
2019-01-23T23:18:43.945Z,92.90
2019-01-23T23:21:16.536Z,92.90
2019-01-23T23:23:47.335Z,92.90
2019-01-23T23:26:18.151Z,93.00
2019-01-23T23:28:48.926Z,92.70
2019-01-23T23:31:20.773Z,92.80
2019-01-23T23:33:51.646Z,93.00
2019-01-23T23:37:41.716Z,93.20
2019-01-23T23:40:12.777Z,93.30
2019-01-23T23:42:43.710Z,93.30
2019-01-23T23:45:14.674Z,93.30
2019-01-23T23:47:45.497Z,93.10
2019-01-23T23:50:16.821Z,93.20
2019-01-23T23:52:47.541Z,93.20
2019-01-23T23:55:19.918Z,93.20
2019-01-23T23:57:50.655Z,93.30
